createdAt,value
2023-01-17T00:02:14.501Z,5.07
2023-01-17T00:05:00.983Z,5.07
2023-01-17T00:07:47.602Z,5.08
2023-01-17T00:10:26.626Z,5.09
2023-01-17T00:12:59.309Z,5.10
2023-01-17T00:15:28.091Z,5.12
2023-01-17T00:17:55.894Z,5.13
2023-01-17T00:20:43.701Z,5.14
2023-01-17T00:23:33.283Z,5.14
2023-01-17T00:26:04.378Z,5.15
2023-01-17T00:28:36.473Z,5.15
2023-01-17T00:31:05.549Z,5.14
2023-01-17T00:33:33.554Z,5.12
2023-01-17T00:36:01.872Z,5.10
2023-01-17T00:38:30.861Z,5.10
2023-01-17T00:41:02.978Z,5.09
2023-01-17T00:43:49.591Z,5.08
2023-01-17T00:46:36.149Z,5.08
2023-01-17T00:49:23.307Z,5.07
2023-01-17T00:52:09.688Z,5.06
2023-01-17T00:54:56.111Z,5.03
2023-01-17T00:57:42.825Z,5.00
2023-01-17T01:00:29.343Z,4.98
2023-01-17T01:03:16.144Z,4.94
2023-01-17T01:06:02.743Z,4.91
2023-01-17T01:08:48.939Z,4.88
2023-01-17T01:11:37.391Z,4.87
2023-01-17T01:14:25.139Z,4.85
2023-01-17T01:17:11.743Z,4.85
2023-01-17T01:19:57.924Z,4.86
2023-01-17T01:22:44.345Z,4.88
2023-01-17T01:25:31.035Z,4.89
2023-01-17T01:28:24.924Z,4.89
2023-01-17T01:31:11.620Z,4.89
2023-01-17T01:33:39.840Z,4.90
2023-01-17T01:36:09.219Z,4.91
2023-01-17T01:38:37.682Z,4.91
2023-01-17T01:41:05.519Z,4.91
2023-01-17T01:43:39.354Z,4.91
2023-01-17T01:46:07.943Z,4.90
2023-01-17T01:48:38.467Z,4.89
2023-01-17T01:51:09.402Z,4.88
2023-01-17T01:53:38.905Z,4.88
2023-01-17T01:56:09.782Z,4.88
2023-01-17T01:58:39.053Z,4.88
2023-01-17T02:01:08.447Z,4.88
2023-01-17T02:03:37.937Z,4.88
2023-01-17T02:06:18.626Z,4.89
2023-01-17T02:08:46.801Z,4.89
2023-01-17T02:11:14.775Z,4.89
2023-01-17T02:13:43.454Z,4.90
2023-01-17T02:16:14.422Z,4.91
2023-01-17T02:18:45.643Z,4.92
2023-01-17T02:21:36.956Z,4.92
2023-01-17T02:24:17.213Z,4.94
2023-01-17T02:26:52.664Z,4.94
2023-01-17T02:29:39.159Z,4.94
2023-01-17T02:32:09.793Z,4.94
2023-01-17T02:34:43.638Z,4.93
2023-01-17T02:37:15.971Z,4.93
2023-01-17T02:39:51.415Z,4.93
2023-01-17T02:42:21.433Z,4.93
2023-01-17T02:44:49.315Z,4.92
2023-01-17T02:47:28.019Z,4.91
2023-01-17T02:50:17.701Z,4.89
2023-01-17T02:53:05.783Z,4.86
2023-01-17T02:55:45.692Z,4.83
2023-01-17T02:58:18.586Z,4.82
2023-01-17T03:00:52.779Z,4.81
2023-01-17T03:03:23.932Z,4.82
2023-01-17T03:06:04.497Z,4.82
2023-01-17T03:08:32.814Z,4.81
2023-01-17T03:11:01.671Z,4.78
2023-01-17T03:13:29.540Z,4.77
2023-01-17T03:15:57.507Z,4.76
2023-01-17T03:18:25.880Z,4.74
2023-01-17T03:20:53.959Z,4.74
2023-01-17T03:23:21.825Z,4.75
2023-01-17T03:25:49.566Z,4.76
2023-01-17T03:28:17.553Z,4.78
2023-01-17T03:30:45.434Z,4.81
2023-01-17T03:33:13.292Z,4.81
2023-01-17T03:35:41.134Z,4.82
2023-01-17T03:38:09.124Z,4.84
2023-01-17T03:40:37.312Z,4.86
2023-01-17T03:43:05.135Z,4.87
2023-01-17T03:45:32.985Z,4.86
2023-01-17T03:48:03.668Z,4.87
2023-01-17T03:50:31.634Z,4.87
2023-01-17T03:52:59.704Z,4.88
2023-01-17T03:55:27.590Z,4.89
2023-01-17T03:57:55.445Z,4.90
2023-01-17T04:00:23.408Z,4.91
2023-01-17T04:02:51.309Z,4.93
2023-01-17T04:05:19.455Z,4.96
2023-01-17T04:07:47.510Z,4.98
2023-01-17T04:10:15.658Z,4.99
2023-01-17T04:12:43.569Z,5.01
2023-01-17T04:15:11.645Z,5.04
2023-01-17T04:17:39.425Z,5.06
2023-01-17T04:20:07.785Z,5.10
2023-01-17T04:22:35.960Z,5.13
2023-01-17T04:25:04.136Z,5.18
2023-01-17T04:27:32.101Z,5.21
2023-01-17T04:29:59.964Z,5.23
2023-01-17T04:32:29.475Z,5.27
2023-01-17T04:34:57.334Z,5.29
2023-01-17T04:37:25.320Z,5.32
2023-01-17T04:39:53.180Z,5.35
2023-01-17T04:42:21.368Z,5.37
2023-01-17T04:44:49.320Z,5.34
2023-01-17T04:47:17.389Z,5.31
2023-01-17T04:49:45.260Z,5.29
2023-01-17T04:52:13.234Z,5.24
2023-01-17T04:54:41.408Z,5.23
2023-01-17T04:57:09.197Z,5.15
2023-01-17T04:59:37.445Z,5.05
2023-01-17T05:02:05.320Z,4.96
2023-01-17T05:04:33.283Z,4.96
2023-01-17T05:07:01.251Z,4.95
2023-01-17T05:09:29.118Z,4.95
2023-01-17T05:11:57.003Z,4.91
2023-01-17T05:14:27.934Z,4.88
2023-01-17T05:16:56.819Z,4.84
2023-01-17T05:19:25.600Z,4.80
2023-01-17T05:21:53.579Z,4.75
2023-01-17T05:24:21.561Z,4.75
2023-01-17T05:26:54.907Z,4.74
2023-01-17T05:29:23.117Z,4.71
2023-01-17T05:31:50.904Z,4.69
2023-01-17T05:34:18.743Z,4.69
2023-01-17T05:36:46.812Z,4.69
2023-01-17T05:39:14.705Z,4.71
2023-01-17T05:41:42.657Z,4.73
2023-01-17T05:44:10.723Z,4.75
2023-01-17T05:46:38.824Z,4.77
2023-01-17T05:49:06.783Z,4.80
2023-01-17T05:51:37.948Z,4.83
2023-01-17T05:54:06.286Z,4.85
2023-01-17T05:56:34.363Z,4.85
2023-01-17T05:59:02.185Z,4.82
2023-01-17T06:01:30.136Z,4.79
2023-01-17T06:03:58.166Z,4.77
2023-01-17T06:06:26.039Z,4.78
2023-01-17T06:08:53.905Z,4.80
2023-01-17T06:11:21.774Z,4.83
2023-01-17T06:13:49.946Z,4.84
2023-01-17T06:16:17.972Z,4.84
2023-01-17T06:18:45.882Z,4.83
2023-01-17T06:21:13.728Z,4.84
2023-01-17T06:23:41.616Z,4.87
2023-01-17T06:26:09.689Z,4.90
2023-01-17T06:28:37.761Z,4.94
2023-01-17T06:31:06.944Z,4.97
2023-01-17T06:33:35.135Z,5.01
2023-01-17T06:36:03.517Z,5.01
2023-01-17T06:38:31.704Z,5.01
2023-01-17T06:41:03.336Z,5.06
2023-01-17T06:43:34.083Z,5.12
2023-01-17T06:46:01.940Z,5.18
2023-01-17T06:48:29.811Z,5.24
2023-01-17T06:50:58.262Z,5.27
2023-01-17T06:53:26.257Z,5.32
2023-01-17T06:55:57.922Z,5.39
2023-01-17T06:58:25.898Z,5.45
2023-01-17T07:00:54.098Z,5.53
2023-01-17T07:03:23.564Z,5.60
2023-01-17T07:05:52.153Z,5.66
2023-01-17T07:08:20.649Z,5.73
2023-01-17T07:10:49.098Z,5.80
2023-01-17T07:13:17.193Z,5.95
2023-01-17T07:15:45.872Z,6.14
2023-01-17T07:18:14.669Z,6.22
2023-01-17T07:20:44.173Z,6.41
2023-01-17T07:23:12.649Z,6.54
2023-01-17T07:25:40.629Z,6.55
2023-01-17T07:28:08.794Z,6.49
2023-01-17T07:30:37.170Z,6.41
2023-01-17T07:33:05.645Z,6.34
2023-01-17T07:35:33.637Z,6.27
2023-01-17T07:38:01.589Z,6.21
2023-01-17T07:40:29.426Z,6.15
2023-01-17T07:43:01.834Z,6.13
2023-01-17T07:45:29.662Z,6.11
2023-01-17T07:47:57.971Z,6.10
2023-01-17T07:50:25.948Z,6.10
2023-01-17T07:52:54.526Z,6.09
2023-01-17T07:55:22.905Z,6.09
2023-01-17T07:57:51.107Z,6.10
2023-01-17T08:00:19.660Z,6.12
2023-01-17T08:02:47.541Z,6.14
2023-01-17T08:05:15.801Z,6.17
2023-01-17T08:07:43.772Z,6.19
2023-01-17T08:10:13.521Z,6.19
2023-01-17T08:12:41.409Z,6.19
2023-01-17T08:15:09.835Z,6.19
2023-01-17T08:17:37.682Z,6.19
2023-01-17T08:20:06.384Z,6.20
2023-01-17T08:22:34.257Z,6.21
2023-01-17T08:25:02.359Z,6.21
2023-01-17T08:27:30.192Z,6.22
2023-01-17T08:29:58.064Z,6.23
2023-01-17T08:32:25.934Z,6.24
2023-01-17T08:34:55.333Z,6.25
2023-01-17T08:37:23.702Z,6.25
2023-01-17T08:39:51.570Z,6.24
2023-01-17T08:42:19.455Z,6.23
2023-01-17T08:44:47.311Z,6.21
2023-01-17T08:47:15.286Z,6.20
2023-01-17T08:49:44.169Z,6.20
2023-01-17T08:52:14.618Z,6.19
2023-01-17T08:54:42.483Z,6.17
2023-01-17T08:57:10.638Z,6.16
2023-01-17T08:59:38.505Z,6.17
2023-01-17T09:02:14.995Z,6.18
2023-01-17T09:04:46.531Z,6.17
2023-01-17T09:07:15.313Z,6.17
2023-01-17T09:09:43.183Z,6.16
2023-01-17T09:12:11.165Z,6.15
2023-01-17T09:14:39.231Z,6.15
2023-01-17T09:17:07.298Z,6.15
2023-01-17T09:19:35.754Z,6.17
2023-01-17T09:22:04.777Z,6.21
2023-01-17T09:24:33.457Z,6.26
2023-01-17T09:27:01.737Z,6.30
2023-01-17T09:29:29.808Z,6.35
2023-01-17T09:31:57.881Z,6.40
2023-01-17T09:34:25.851Z,6.44
2023-01-17T09:36:54.026Z,6.47
2023-01-17T09:39:21.997Z,6.47
2023-01-17T09:42:12.798Z,6.47
2023-01-17T09:44:43.134Z,6.51
2023-01-17T09:47:14.026Z,6.56
2023-01-17T09:49:45.812Z,6.59
2023-01-17T09:52:14.911Z,6.63
2023-01-17T09:54:44.832Z,6.66
2023-01-17T09:57:31.332Z,6.69
2023-01-17T10:00:05.905Z,6.68
2023-01-17T10:02:44.256Z,6.70
2023-01-17T10:05:18.278Z,6.72
2023-01-17T10:08:05.092Z,6.73
2023-01-17T10:10:39.101Z,6.74
2023-01-17T10:13:26.012Z,6.74
2023-01-17T10:16:01.466Z,6.72
2023-01-17T10:18:35.371Z,6.70
2023-01-17T10:21:12.538Z,6.71
2023-01-17T10:23:43.408Z,6.76
2023-01-17T10:26:20.477Z,6.81
2023-01-17T10:28:51.220Z,6.86
2023-01-17T10:31:19.189Z,6.89
2023-01-17T10:33:53.028Z,6.86
2023-01-17T10:36:21.003Z,6.85
2023-01-17T10:38:52.308Z,6.92
2023-01-17T10:41:32.257Z,7.00
2023-01-17T10:44:18.755Z,7.06
2023-01-17T10:46:55.642Z,7.11
2023-01-17T10:49:24.833Z,7.17
2023-01-17T10:52:11.845Z,7.21
2023-01-17T10:54:55.286Z,7.27
2023-01-17T10:57:24.491Z,7.33
2023-01-17T10:59:53.161Z,7.36
2023-01-17T11:02:40.048Z,7.40
2023-01-17T11:05:19.421Z,7.47
2023-01-17T11:07:58.134Z,7.66
2023-01-17T11:10:38.015Z,8.38
2023-01-17T11:13:07.600Z,9.82
2023-01-17T11:15:39.696Z,11.08
2023-01-17T11:18:15.822Z,11.90
2023-01-17T11:20:43.892Z,12.55
2023-01-17T11:23:14.826Z,13.17
2023-01-17T11:25:55.197Z,13.63
2023-01-17T11:28:30.469Z,13.79
2023-01-17T11:31:03.847Z,13.74
2023-01-17T11:33:58.015Z,13.83
2023-01-17T11:36:28.552Z,14.08
2023-01-17T11:38:56.682Z,14.30
2023-01-17T11:41:28.364Z,14.30
2023-01-17T11:43:57.591Z,14.61
2023-01-17T11:46:26.310Z,15.57
2023-01-17T11:48:56.455Z,16.67
2023-01-17T11:51:27.219Z,17.72
2023-01-17T11:54:03.513Z,18.42
2023-01-17T11:56:33.322Z,18.92
2023-01-17T11:59:12.497Z,18.74
2023-01-17T12:01:51.246Z,18.47
2023-01-17T12:04:23.116Z,19.45
2023-01-17T12:07:00.499Z,19.39
2023-01-17T12:09:52.735Z,19.54
2023-01-17T12:12:53.372Z,19.65
2023-01-17T12:15:26.247Z,18.65
2023-01-17T12:17:56.991Z,17.15
2023-01-17T12:20:36.324Z,17.79
2023-01-17T12:23:26.716Z,17.67
2023-01-17T12:26:20.899Z,16.39
2023-01-17T12:28:51.533Z,14.40
2023-01-17T12:31:25.971Z,14.03
2023-01-17T12:34:12.064Z,13.44
2023-01-17T12:36:50.459Z,13.16
2023-01-17T12:39:21.916Z,12.98
2023-01-17T12:42:08.518Z,12.63
2023-01-17T12:44:59.783Z,12.83
2023-01-17T12:47:27.907Z,13.52
2023-01-17T12:50:14.308Z,14.44
2023-01-17T12:52:42.691Z,15.59
2023-01-17T12:55:20.303Z,16.87
2023-01-17T12:57:54.196Z,17.81
2023-01-17T13:00:25.574Z,18.14
2023-01-17T13:03:04.296Z,17.48
2023-01-17T13:05:41.142Z,18.04
2023-01-17T13:08:22.223Z,18.19
2023-01-17T13:10:59.616Z,18.75
2023-01-17T13:13:29.112Z,18.67
2023-01-17T13:15:57.053Z,18.56
2023-01-17T13:18:26.490Z,18.40
2023-01-17T13:20:58.138Z,18.41
2023-01-17T13:23:35.323Z,17.68
2023-01-17T13:26:03.600Z,17.68
2023-01-17T13:28:37.439Z,17.76
2023-01-17T13:31:17.609Z,16.38
2023-01-17T13:33:57.821Z,16.16
2023-01-17T13:36:44.731Z,15.84
2023-01-17T13:39:33.190Z,15.32
2023-01-17T13:42:03.928Z,14.51
2023-01-17T13:44:32.404Z,14.29
2023-01-17T13:47:04.395Z,14.16
2023-01-17T13:49:36.866Z,13.94
2023-01-17T13:52:04.808Z,13.67
2023-01-17T13:54:33.613Z,13.54
2023-01-17T13:57:20.308Z,13.40
2023-01-17T13:59:48.390Z,13.28
2023-01-17T14:02:34.408Z,13.11
2023-01-17T14:05:11.366Z,12.92
2023-01-17T14:07:47.925Z,12.78
2023-01-17T14:10:28.043Z,12.60
2023-01-17T14:12:56.661Z,12.44
2023-01-17T14:15:28.415Z,12.29
2023-01-17T14:17:58.744Z,12.09
2023-01-17T14:20:29.575Z,11.91
2023-01-17T14:23:02.465Z,11.78
2023-01-17T14:25:41.098Z,11.69
2023-01-17T14:28:18.165Z,11.58
2023-01-17T14:30:46.432Z,11.45
2023-01-17T14:33:18.715Z,11.25
2023-01-17T14:35:51.713Z,11.03
2023-01-17T14:38:42.364Z,10.77
2023-01-17T14:41:30.865Z,10.63
2023-01-17T14:44:01.194Z,10.56
2023-01-17T14:46:32.534Z,10.44
2023-01-17T14:49:04.497Z,10.42
2023-01-17T14:51:37.281Z,10.38
2023-01-17T14:54:17.527Z,10.34
2023-01-17T14:56:45.495Z,10.28
2023-01-17T14:59:14.950Z,10.22
2023-01-17T15:02:06.558Z,10.16
2023-01-17T15:04:39.782Z,10.11
2023-01-17T15:07:12.805Z,10.05
2023-01-17T15:09:42.517Z,10.01
2023-01-17T15:12:13.899Z,9.96
2023-01-17T15:14:43.584Z,9.91
2023-01-17T15:17:31.721Z,9.86
2023-01-17T15:20:01.880Z,9.78
2023-01-17T15:22:30.424Z,9.68
2023-01-17T15:24:59.107Z,9.57
2023-01-17T15:27:27.383Z,9.47
2023-01-17T15:29:59.351Z,9.36
2023-01-17T15:32:32.024Z,9.24
2023-01-17T15:35:02.975Z,9.08
2023-01-17T15:37:35.149Z,8.90
2023-01-17T15:40:06.344Z,8.72
2023-01-17T15:42:36.610Z,8.61
2023-01-17T15:45:06.873Z,8.51
2023-01-17T15:47:38.842Z,8.41
2023-01-17T15:50:30.267Z,8.33
2023-01-17T15:53:02.884Z,8.24
2023-01-17T15:55:31.060Z,8.17
2023-01-17T15:57:59.748Z,8.09
2023-01-17T16:00:38.391Z,8.05
2023-01-17T16:03:22.104Z,7.99
2023-01-17T16:05:50.691Z,7.95
2023-01-17T16:08:27.978Z,7.91
2023-01-17T16:10:58.811Z,7.87
2023-01-17T16:13:26.786Z,7.82
2023-01-17T16:15:54.917Z,7.77
2023-01-17T16:18:24.249Z,7.71
2023-01-17T16:20:55.756Z,7.67
2023-01-17T16:23:23.889Z,7.62
2023-01-17T16:25:51.852Z,7.58
2023-01-17T16:28:23.005Z,7.57
2023-01-17T16:30:54.153Z,7.54
2023-01-17T16:33:22.228Z,7.50
2023-01-17T16:35:53.727Z,7.45
2023-01-17T16:38:21.642Z,7.40
2023-01-17T16:40:49.599Z,7.37
2023-01-17T16:43:18.290Z,7.34
2023-01-17T16:45:53.073Z,7.32
2023-01-17T16:48:21.204Z,7.30
2023-01-17T16:50:53.096Z,7.28
2023-01-17T16:53:24.490Z,7.28
2023-01-17T16:55:55.252Z,7.28
2023-01-17T16:58:23.201Z,7.25
2023-01-17T17:00:51.411Z,7.21
2023-01-17T17:03:22.112Z,7.20
2023-01-17T17:05:57.269Z,7.18
2023-01-17T17:08:25.433Z,7.16
2023-01-17T17:10:53.505Z,7.16
2023-01-17T17:13:21.469Z,7.16
2023-01-17T17:15:49.560Z,7.17
2023-01-17T17:18:18.076Z,7.17
2023-01-17T17:20:46.089Z,7.14
2023-01-17T17:23:14.066Z,7.12
2023-01-17T17:25:42.028Z,7.11
2023-01-17T17:28:10.429Z,7.09
2023-01-17T17:30:38.231Z,7.09
2023-01-17T17:33:06.241Z,7.09
2023-01-17T17:35:35.040Z,7.09
2023-01-17T17:38:05.663Z,7.09
2023-01-17T17:40:34.764Z,7.09
2023-01-17T17:43:02.620Z,7.09
2023-01-17T17:45:30.403Z,7.10
2023-01-17T17:47:58.134Z,7.09
2023-01-17T17:50:26.124Z,7.09
2023-01-17T17:52:54.127Z,7.07
2023-01-17T17:55:22.067Z,7.06
2023-01-17T17:57:50.038Z,7.05
2023-01-17T18:00:18.308Z,7.05
2023-01-17T18:02:46.794Z,7.05
2023-01-17T18:05:14.777Z,7.05
2023-01-17T18:07:42.639Z,7.05
2023-01-17T18:10:10.610Z,7.06
2023-01-17T18:12:38.461Z,7.06
2023-01-17T18:15:06.537Z,7.05
2023-01-17T18:17:34.509Z,7.03
2023-01-17T18:20:02.586Z,7.01
2023-01-17T18:22:32.393Z,6.98
2023-01-17T18:25:00.255Z,6.94
2023-01-17T18:27:28.231Z,6.90
2023-01-17T18:29:56.136Z,6.87
2023-01-17T18:32:24.175Z,6.85
2023-01-17T18:34:52.132Z,6.84
2023-01-17T18:37:20.107Z,6.83
2023-01-17T18:39:48.073Z,6.82
2023-01-17T18:42:15.836Z,6.82
2023-01-17T18:44:43.811Z,6.83
2023-01-17T18:47:13.208Z,6.86
2023-01-17T18:49:41.493Z,6.86
2023-01-17T18:52:09.667Z,6.86
2023-01-17T18:54:37.751Z,6.85
2023-01-17T18:57:05.599Z,6.86
2023-01-17T18:59:33.578Z,6.87
2023-01-17T19:02:01.642Z,6.89
2023-01-17T19:04:31.870Z,6.90
2023-01-17T19:06:59.830Z,6.91
2023-01-17T19:09:27.809Z,6.92
2023-01-17T19:11:57.105Z,6.93
2023-01-17T19:14:25.485Z,6.94
2023-01-17T19:16:53.448Z,6.95
2023-01-17T19:19:21.533Z,6.95
2023-01-17T19:21:52.681Z,6.94
2023-01-17T19:24:20.641Z,6.94
2023-01-17T19:26:51.376Z,6.94
2023-01-17T19:29:19.344Z,6.95
2023-01-17T19:31:47.746Z,6.95
2023-01-17T19:34:19.072Z,6.96
2023-01-17T19:36:47.452Z,6.98
2023-01-17T19:39:15.623Z,7.00
2023-01-17T19:41:44.829Z,7.01
2023-01-17T19:44:13.923Z,7.04
2023-01-17T19:46:42.501Z,7.05
2023-01-17T19:49:10.510Z,7.05
2023-01-17T19:51:39.777Z,7.04
2023-01-17T19:54:08.622Z,7.02
2023-01-17T19:56:36.965Z,6.98
2023-01-17T19:59:05.107Z,6.96
2023-01-17T20:01:33.953Z,6.92
2023-01-17T20:04:02.591Z,6.87
2023-01-17T20:06:35.472Z,6.83
2023-01-17T20:09:04.264Z,6.79
2023-01-17T20:11:32.233Z,6.77
2023-01-17T20:14:00.623Z,6.74
2023-01-17T20:16:30.312Z,6.72
2023-01-17T20:18:59.507Z,6.69
2023-01-17T20:21:28.827Z,6.67
2023-01-17T20:23:57.920Z,6.68
2023-01-17T20:26:36.425Z,6.72
2023-01-17T20:29:07.590Z,6.74
2023-01-17T20:31:38.465Z,6.75
2023-01-17T20:34:08.221Z,6.78
2023-01-17T20:36:37.137Z,6.79
2023-01-17T20:39:06.512Z,6.80
2023-01-17T20:41:36.184Z,6.80
2023-01-17T20:44:05.327Z,6.78
2023-01-17T20:46:40.440Z,6.79
2023-01-17T20:49:13.050Z,6.79
2023-01-17T20:51:41.378Z,6.79
2023-01-17T20:54:11.122Z,6.79
2023-01-17T20:56:38.994Z,6.79
2023-01-17T20:59:09.416Z,6.84
2023-01-17T21:01:38.059Z,6.87
2023-01-17T21:04:10.263Z,6.93
2023-01-17T21:06:39.802Z,6.98
2023-01-17T21:09:10.414Z,7.01
2023-01-17T21:11:38.684Z,7.02
2023-01-17T21:14:06.657Z,7.03
2023-01-17T21:16:35.200Z,7.04
2023-01-17T21:19:03.929Z,7.04
2023-01-17T21:21:31.900Z,7.04
2023-01-17T21:24:00.106Z,7.05
2023-01-17T21:26:28.704Z,7.06
2023-01-17T21:28:58.363Z,7.08
2023-01-17T21:31:27.459Z,7.08
2023-01-17T21:33:56.769Z,7.09
2023-01-17T21:36:28.788Z,7.10
2023-01-17T21:38:58.542Z,7.10
2023-01-17T21:41:28.760Z,7.09
2023-01-17T21:43:57.558Z,7.12
2023-01-17T21:46:26.085Z,7.16
2023-01-17T21:48:54.110Z,7.21
2023-01-17T21:51:22.138Z,7.28
2023-01-17T21:53:50.358Z,7.36
2023-01-17T21:56:36.655Z,7.43
2023-01-17T21:59:04.634Z,7.51
2023-01-17T22:01:33.349Z,7.59
2023-01-17T22:04:03.044Z,7.67
2023-01-17T22:06:32.504Z,7.75
2023-01-17T22:09:00.693Z,7.82
2023-01-17T22:11:30.539Z,7.88
2023-01-17T22:13:59.347Z,7.94
2023-01-17T22:16:27.483Z,8.00
2023-01-17T22:18:55.463Z,8.07
2023-01-17T22:21:24.737Z,8.12
2023-01-17T22:23:54.263Z,8.16
2023-01-17T22:26:25.079Z,8.21
2023-01-17T22:28:53.422Z,8.25
2023-01-17T22:31:23.397Z,8.29
2023-01-17T22:34:02.122Z,8.32
2023-01-17T22:36:31.807Z,8.36
2023-01-17T22:38:59.761Z,8.39
2023-01-17T22:41:33.004Z,8.40
2023-01-17T22:44:05.630Z,8.40
2023-01-17T22:46:35.672Z,8.40
2023-01-17T22:49:04.276Z,8.39
2023-01-17T22:51:32.215Z,8.41
2023-01-17T22:54:00.839Z,8.45
2023-01-17T22:56:30.395Z,8.48
2023-01-17T22:58:58.644Z,8.51
2023-01-17T23:01:27.715Z,8.55
2023-01-17T23:03:59.687Z,8.60
2023-01-17T23:06:27.531Z,8.63
2023-01-17T23:08:56.678Z,8.70
2023-01-17T23:11:44.101Z,8.76
2023-01-17T23:14:17.424Z,8.80
2023-01-17T23:17:14.788Z,8.81
2023-01-17T23:19:42.687Z,8.85
2023-01-17T23:22:20.889Z,8.89
2023-01-17T23:24:59.893Z,8.89
2023-01-17T23:27:46.189Z,8.92
2023-01-17T23:30:17.336Z,8.95
2023-01-17T23:32:49.588Z,8.98
2023-01-17T23:35:18.800Z,9.02
2023-01-17T23:38:05.511Z,9.04
2023-01-17T23:40:34.419Z,9.05
2023-01-17T23:43:21.114Z,9.08
2023-01-17T23:45:49.973Z,9.11
2023-01-17T23:48:18.230Z,9.10
2023-01-17T23:50:46.973Z,9.11
2023-01-17T23:53:22.352Z,9.08
2023-01-17T23:55:51.912Z,9.07
2023-01-17T23:58:21.118Z,9.04
